03:27
Airports
History
Links
Donate
Help keep this website running!
PayPal
Bitcoin
Information on this page is community maintained and may be outdated or inaccurate and is intended for reference only or PC simulator navigating!
Always use approved charts for navigating.
LFNP
Nizas
Nizas (LFNP)
Nizas, Languedoc-Roussillon, France (34320)
(C)
Lat/Lng:43° 30' 17.11" N / 3° 24' 45.48" E
43.504753 / 3.412633
Elevation:321'ft 98mMSL
ID / ICAO:LFNP
Runways:1
Longest:(11-29) 692.0m 2,270ft Grass
Controlled:Yes
Distance To
Airport ID:
Airport Radio Frequencies
PEZENAS MULT: 123.5
Approach: 130.85
Nearby VORs <50NM
Nearby NDBs
Nearby WeatherUpdated 03-26-17 03:00 GMT
Nearby weather at LFMU, Beziers Vias located 12.9 nautical miles from LFNP
Altimeter: 30.03
Visibility: 6.2 statute miles
Wind: 9 knots (020°)
Temp: 8°c 46°f
Humidity: 87.2%

METAR: LFMU 260300Z AUTO 02009KT CAVOK 08/06 Q1017 NOSIG

(Powered by phpweather)
Runway 11 / 29
Dimensions:692 x 50m 2270' x 164'ft
Surface:Grass
Runway 11 [A]Runway 29 [B]
Heading:289°TH 109°TH
Lat:
Lng:
43° 30' 13.42"N
3° 25' 0.24"E
43° 30' 20.8"N
3° 24' 30.72"E
Google Map
Nearby Airports
(C) Beziers Vias 12.9 NM
LFMU (WX) SSW 193°
4 Bedarieux la Tour sur Orb 15.9 NM
LFNX NW 304°
(C) Saint Martin de Londres 27.5 NM
LFNL NE 42°
(C) Montpellier/Mediterranee 28.2 NM
LFMT (WX) E 79°
(C) Candillargues 33.7 NM
LFNG ENE 77°
(C) Millau Larzac 35.4 NM
LFCM NNW 341°
(U) Belmont 40.0 NM
LFIF WNW 303°
VFR Chart
Flight Planning at SkyVector.com